EZY36DU EPKK-EGPH
Flight info
| Callsign | EZY36DU |
|---|---|
| Flight time | N/A |
| Altitude | 34000 |
| Route | OMFOL T738 DINOV DCT NAROX DCT NOMKA DCT TENLI DCT BERGI L602 NALAX L46 ESHIN N110 ERKIT DCT AGPED |
| Aircraft | A320/M-SDE2E3FGHIRWXY/LB1 |
Departure
| Time | N/A |
|---|---|
| Airport | Kraków John Paul II International Airport (EPKK) |
Arrival
| Time | 2026-04-24 20:40 |
|---|---|
| Airport | Edinburgh Airport (EGPH) |
| Time | Latitude | Longitude | Altitude | Speed | Heading |
|---|---|---|---|---|---|
| 2026-04-24 18:54 | 51.43294 | 10.90856 | 34135 ft | 382 kts | 274° |
| 2026-04-24 18:55 | 51.43777 | 10.78106 | 34127 ft | 382 kts | 273° |
| 2026-04-24 18:56 | 51.44087 | 10.69614 | 34138 ft | 382 kts | 273° |
| 2026-04-24 18:56 | 51.44390 | 10.61101 | 34128 ft | 382 kts | 273° |
| 2026-04-24 18:57 | 51.44699 | 10.52594 | 34127 ft | 382 kts | 275° |
| 2026-04-24 18:57 | 51.45999 | 10.44332 | 34141 ft | 384 kts | 287° |
| 2026-04-24 18:58 | 51.47700 | 10.36208 | 34142 ft | 384 kts | 286° |
| 2026-04-24 18:58 | 51.49387 | 10.28082 | 34143 ft | 384 kts | 286° |
| 2026-04-24 18:59 | 51.51067 | 10.19946 | 34147 ft | 384 kts | 286° |
| 2026-04-24 18:59 | 51.52734 | 10.11847 | 34152 ft | 384 kts | 286° |
| 2026-04-24 19:00 | 51.54402 | 10.03710 | 34154 ft | 384 kts | 286° |
| 2026-04-24 19:00 | 51.56063 | 9.95567 | 34153 ft | 384 kts | 286° |
| 2026-04-24 19:01 | 51.57723 | 9.87416 | 34148 ft | 384 kts | 286° |
| 2026-04-24 19:01 | 51.59377 | 9.79256 | 34158 ft | 384 kts | 285° |
| 2026-04-24 19:02 | 51.60744 | 9.72464 | 34161 ft | 384 kts | 285° |
| 2026-04-24 19:02 | 51.62664 | 9.62910 | 34152 ft | 384 kts | 285° |
| 2026-04-24 19:03 | 51.64302 | 9.54730 | 34151 ft | 384 kts | 285° |
| 2026-04-24 19:03 | 51.65931 | 9.46537 | 34149 ft | 384 kts | 285° |
| 2026-04-24 19:04 | 51.67562 | 9.38321 | 34169 ft | 385 kts | 285° |
| 2026-04-24 19:04 | 51.69187 | 9.30115 | 34164 ft | 385 kts | 285° |
| 2026-04-24 19:05 | 51.70808 | 9.21885 | 34160 ft | 385 kts | 285° |
| 2026-04-24 19:05 | 51.72411 | 9.13716 | 34166 ft | 385 kts | 285° |
| 2026-04-24 19:06 | 51.74194 | 9.05570 | 34165 ft | 386 kts | 290° |
| 2026-04-24 19:06 | 51.76308 | 8.97611 | 34161 ft | 386 kts | 291° |
| 2026-04-24 19:07 | 51.78473 | 8.89661 | 34174 ft | 386 kts | 291° |
| 2026-04-24 19:07 | 51.80264 | 8.82992 | 34167 ft | 386 kts | 290° |
| 2026-04-24 19:08 | 51.82727 | 8.73717 | 34165 ft | 387 kts | 290° |
| 2026-04-24 19:08 | 51.84842 | 8.65702 | 34166 ft | 388 kts | 290° |
| 2026-04-24 19:09 | 51.86958 | 8.57664 | 34171 ft | 389 kts | 290° |
| 2026-04-24 19:09 | 51.89070 | 8.49597 | 34172 ft | 389 kts | 290° |
| 2026-04-24 19:10 | 51.91183 | 8.41530 | 34164 ft | 389 kts | 290° |
| 2026-04-24 19:10 | 51.93289 | 8.33449 | 34167 ft | 389 kts | 290° |
| 2026-04-24 19:11 | 51.95390 | 8.25351 | 34170 ft | 390 kts | 290° |
| 2026-04-24 19:11 | 51.97487 | 8.17235 | 34166 ft | 390 kts | 290° |
| 2026-04-24 19:12 | 51.99576 | 8.09104 | 34172 ft | 391 kts | 290° |
| 2026-04-24 19:12 | 52.01668 | 8.00965 | 34198 ft | 391 kts | 290° |
| 2026-04-24 19:13 | 52.03406 | 7.94199 | 34193 ft | 390 kts | 290° |
| 2026-04-24 19:13 | 52.05840 | 7.84682 | 34199 ft | 390 kts | 290° |
| 2026-04-24 19:14 | 52.07912 | 7.76524 | 34196 ft | 390 kts | 289° |
| 2026-04-24 19:14 | 52.09976 | 7.68359 | 34194 ft | 391 kts | 289° |
| 2026-04-24 19:15 | 52.12032 | 7.60186 | 34192 ft | 391 kts | 289° |
| 2026-04-24 19:15 | 52.14086 | 7.51989 | 34194 ft | 391 kts | 289° |
| 2026-04-24 19:16 | 52.17149 | 7.39752 | 34210 ft | 391 kts | 289° |
| 2026-04-24 19:16 | 52.19199 | 7.31546 | 34206 ft | 391 kts | 289° |
| 2026-04-24 19:17 | 52.21238 | 7.23316 | 34219 ft | 391 kts | 289° |
| 2026-04-24 19:17 | 52.23271 | 7.15086 | 34216 ft | 391 kts | 289° |
| 2026-04-24 19:18 | 52.25300 | 7.06847 | 34217 ft | 391 kts | 289° |
| 2026-04-24 19:18 | 52.27318 | 6.98606 | 34216 ft | 391 kts | 289° |
| 2026-04-24 19:19 | 52.29332 | 6.90361 | 34225 ft | 391 kts | 289° |
| 2026-04-24 19:19 | 52.31344 | 6.82102 | 34225 ft | 391 kts | 289° |
| 2026-04-24 19:20 | 52.33346 | 6.73844 | 34259 ft | 391 kts | 289° |
| 2026-04-24 19:20 | 52.35340 | 6.65589 | 34255 ft | 390 kts | 288° |
| 2026-04-24 19:21 | 52.37319 | 6.57349 | 34250 ft | 389 kts | 288° |
| 2026-04-24 19:21 | 52.39291 | 6.49118 | 34251 ft | 388 kts | 288° |
| 2026-04-24 19:22 | 52.41261 | 6.40886 | 34244 ft | 388 kts | 288° |
| 2026-04-24 19:22 | 52.43224 | 6.32663 | 34245 ft | 388 kts | 288° |
| 2026-04-24 19:23 | 52.45180 | 6.24413 | 34238 ft | 388 kts | 288° |
| 2026-04-24 19:23 | 52.47123 | 6.16164 | 34243 ft | 388 kts | 288° |
| 2026-04-24 19:24 | 52.49063 | 6.07905 | 34247 ft | 388 kts | 288° |
| 2026-04-24 19:24 | 52.50997 | 5.99645 | 34245 ft | 388 kts | 288° |
| 2026-04-24 19:25 | 52.52928 | 5.91388 | 34260 ft | 387 kts | 288° |
| 2026-04-24 19:25 | 52.54847 | 5.83129 | 34262 ft | 387 kts | 288° |
| 2026-04-24 19:26 | 52.56746 | 5.74910 | 34265 ft | 387 kts | 288° |
| 2026-04-24 19:26 | 52.58658 | 5.66638 | 34266 ft | 387 kts | 288° |
| 2026-04-24 19:27 | 52.60561 | 5.58370 | 34276 ft | 387 kts | 287° |
| 2026-04-24 19:27 | 52.62452 | 5.50083 | 34286 ft | 387 kts | 287° |
| 2026-04-24 19:28 | 52.64334 | 5.41797 | 34321 ft | 386 kts | 287° |
| 2026-04-24 19:28 | 52.66216 | 5.33531 | 34313 ft | 384 kts | 287° |
| 2026-04-24 19:29 | 52.68711 | 5.22516 | 34301 ft | 383 kts | 287° |
| 2026-04-24 19:30 | 52.70559 | 5.14310 | 34291 ft | 382 kts | 287° |
| 2026-04-24 19:30 | 52.72389 | 5.06163 | 34282 ft | 381 kts | 286° |
| 2026-04-24 19:31 | 52.74222 | 4.97961 | 34278 ft | 381 kts | 286° |
| 2026-04-24 19:31 | 52.76042 | 4.89745 | 34273 ft | 381 kts | 286° |
| 2026-04-24 19:32 | 52.77856 | 4.81534 | 34272 ft | 381 kts | 286° |
| 2026-04-24 19:32 | 52.79673 | 4.73324 | 34268 ft | 381 kts | 286° |
| 2026-04-24 19:33 | 52.81493 | 4.65087 | 34265 ft | 381 kts | 286° |
| 2026-04-24 19:33 | 52.83297 | 4.56850 | 34271 ft | 381 kts | 286° |
| 2026-04-24 19:34 | 52.85089 | 4.48606 | 34271 ft | 381 kts | 286° |
| 2026-04-24 19:34 | 52.86877 | 4.40352 | 34270 ft | 381 kts | 286° |
| 2026-04-24 19:35 | 52.88665 | 4.32093 | 34278 ft | 381 kts | 286° |
| 2026-04-24 19:35 | 52.90453 | 4.23832 | 34282 ft | 381 kts | 286° |
| 2026-04-24 19:36 | 52.92228 | 4.15563 | 34284 ft | 381 kts | 286° |
| 2026-04-24 19:36 | 52.93994 | 4.07284 | 34310 ft | 381 kts | 286° |
| 2026-04-24 19:37 | 52.95765 | 3.98960 | 34273 ft | 384 kts | 287° |
| 2026-04-24 19:37 | 52.97538 | 3.90583 | 34258 ft | 386 kts | 286° |
| 2026-04-24 19:38 | 52.99327 | 3.82083 | 34289 ft | 397 kts | 286° |
| 2026-04-24 19:38 | 53.01174 | 3.73294 | 34287 ft | 408 kts | 287° |
| 2026-04-24 19:39 | 53.03052 | 3.64350 | 34292 ft | 411 kts | 287° |
| 2026-04-24 19:39 | 53.04922 | 3.55383 | 34296 ft | 411 kts | 287° |
| 2026-04-24 19:40 | 53.06791 | 3.46360 | 34294 ft | 414 kts | 287° |
| 2026-04-24 19:40 | 53.08657 | 3.37316 | 34279 ft | 414 kts | 287° |
| 2026-04-24 19:41 | 53.10383 | 3.28187 | 34276 ft | 412 kts | 281° |
| 2026-04-24 19:41 | 53.11146 | 3.22427 | 34268 ft | 412 kts | 281° |
| 2026-04-24 19:42 | 53.12360 | 3.13275 | 34265 ft | 413 kts | 281° |
| 2026-04-24 19:42 | 53.13594 | 3.03936 | 34286 ft | 413 kts | 281° |
| 2026-04-24 19:43 | 53.14823 | 2.94579 | 34271 ft | 414 kts | 281° |
| 2026-04-24 19:43 | 53.16054 | 2.85189 | 34270 ft | 415 kts | 281° |
| 2026-04-24 19:44 | 53.17273 | 2.75790 | 34268 ft | 416 kts | 281° |
| 2026-04-24 19:44 | 53.18490 | 2.66362 | 34271 ft | 416 kts | 281° |
| 2026-04-24 19:45 | 53.19690 | 2.56921 | 34282 ft | 417 kts | 281° |
| 2026-04-24 19:45 | 53.20890 | 2.47447 | 34281 ft | 417 kts | 281° |
| 2026-04-24 19:46 | 53.22086 | 2.37979 | 34275 ft | 417 kts | 281° |
| 2026-04-24 19:46 | 53.23269 | 2.28501 | 34290 ft | 417 kts | 281° |
| 2026-04-24 19:47 | 53.24448 | 2.18982 | 34264 ft | 420 kts | 281° |
| 2026-04-24 19:47 | 53.25637 | 2.09413 | 34264 ft | 422 kts | 281° |
| 2026-04-24 19:48 | 53.26817 | 1.99789 | 34266 ft | 423 kts | 282° |
| 2026-04-24 19:48 | 53.28581 | 1.85303 | 34273 ft | 425 kts | 281° |
| 2026-04-24 19:49 | 53.30905 | 1.65927 | 34278 ft | 425 kts | 281° |
| 2026-04-24 19:50 | 53.33237 | 1.46515 | 34280 ft | 425 kts | 283° |
| 2026-04-24 19:51 | 53.35372 | 1.32114 | 34286 ft | 425 kts | 285° |
| 2026-04-24 19:52 | 53.37515 | 1.17728 | 34288 ft | 425 kts | 284° |
| 2026-04-24 19:52 | 53.38883 | 1.08108 | 34286 ft | 425 kts | 284° |
| 2026-04-24 19:53 | 53.40236 | 0.98467 | 34272 ft | 424 kts | 284° |
| 2026-04-24 19:54 | 53.42257 | 0.84042 | 34283 ft | 424 kts | 284° |
| 2026-04-24 19:54 | 53.43606 | 0.74419 | 34285 ft | 423 kts | 284° |
| 2026-04-24 19:55 | 53.44720 | 0.66429 | 34278 ft | 423 kts | 284° |
| 2026-04-24 19:55 | 53.46267 | 0.55239 | 34279 ft | 423 kts | 284° |
| 2026-04-24 19:56 | 53.47587 | 0.45592 | 34268 ft | 423 kts | 285° |
| 2026-04-24 19:56 | 53.48898 | 0.35978 | 34276 ft | 423 kts | 285° |
| 2026-04-24 19:57 | 53.50203 | 0.26350 | 34284 ft | 422 kts | 284° |
| 2026-04-24 19:57 | 53.51495 | 0.16736 | 34283 ft | 422 kts | 284° |
| 2026-04-24 19:58 | 53.52774 | 0.07107 | 34287 ft | 422 kts | 284° |
| 2026-04-24 19:58 | 53.54048 | -0.02515 | 34265 ft | 421 kts | 285° |
| 2026-04-24 19:59 | 53.55319 | -0.12127 | 34287 ft | 421 kts | 285° |
| 2026-04-24 19:59 | 53.56608 | -0.21720 | 34294 ft | 419 kts | 289° |
| 2026-04-24 20:00 | 53.59189 | -0.30379 | 34292 ft | 415 kts | 308° |
| 2026-04-24 20:00 | 53.63432 | -0.36963 | 34297 ft | 415 kts | 324° |
| 2026-04-24 20:01 | 53.68180 | -0.42412 | 34288 ft | 415 kts | 324° |
| 2026-04-24 20:01 | 53.72947 | -0.47917 | 34283 ft | 415 kts | 324° |
| 2026-04-24 20:02 | 53.76914 | -0.52508 | 34282 ft | 417 kts | 326° |
| 2026-04-24 20:02 | 53.82510 | -0.59010 | 34269 ft | 418 kts | 325° |
| 2026-04-24 20:03 | 53.87279 | -0.64573 | 34269 ft | 419 kts | 325° |
| 2026-04-24 20:03 | 53.92119 | -0.70221 | 34271 ft | 419 kts | 325° |
| 2026-04-24 20:04 | 53.96923 | -0.75842 | 34271 ft | 419 kts | 325° |
| 2026-04-24 20:04 | 54.01692 | -0.81445 | 34273 ft | 420 kts | 326° |
| 2026-04-24 20:05 | 54.06596 | -0.86883 | 34259 ft | 421 kts | 329° |
| 2026-04-24 20:05 | 54.11685 | -0.91838 | 34258 ft | 421 kts | 331° |
| 2026-04-24 20:06 | 54.16796 | -0.96748 | 34257 ft | 422 kts | 330° |
| 2026-04-24 20:06 | 54.21881 | -1.01792 | 34260 ft | 423 kts | 330° |
| 2026-04-24 20:07 | 54.26089 | -1.06044 | 34258 ft | 423 kts | 330° |
| 2026-04-24 20:07 | 54.32022 | -1.12063 | 34242 ft | 424 kts | 329° |
| 2026-04-24 20:08 | 54.37118 | -1.17207 | 34249 ft | 425 kts | 329° |
| 2026-04-24 20:08 | 54.42207 | -1.22361 | 34253 ft | 425 kts | 329° |
| 2026-04-24 20:09 | 54.47297 | -1.27540 | 34256 ft | 425 kts | 329° |
| 2026-04-24 20:09 | 54.52385 | -1.32725 | 34252 ft | 426 kts | 329° |
| 2026-04-24 20:09 | 54.54936 | -1.35333 | 34125 ft | 428 kts | 329° |
| 2026-04-24 20:10 | 54.57498 | -1.37960 | 33822 ft | 429 kts | 329° |
| 2026-04-24 20:10 | 54.60060 | -1.40589 | 33418 ft | 430 kts | 329° |
| 2026-04-24 20:10 | 54.62635 | -1.43235 | 33017 ft | 432 kts | 329° |
| 2026-04-24 20:10 | 54.65220 | -1.45893 | 32624 ft | 434 kts | 330° |
| 2026-04-24 20:11 | 54.67826 | -1.48578 | 32236 ft | 436 kts | 330° |
| 2026-04-24 20:11 | 54.70403 | -1.51237 | 31859 ft | 438 kts | 330° |
| 2026-04-24 20:11 | 54.73026 | -1.53945 | 31484 ft | 440 kts | 330° |
| 2026-04-24 20:11 | 54.75661 | -1.56668 | 31116 ft | 442 kts | 330° |
| 2026-04-24 20:12 | 54.78312 | -1.59410 | 30746 ft | 445 kts | 330° |
| 2026-04-24 20:12 | 54.80969 | -1.62163 | 30381 ft | 447 kts | 330° |
| 2026-04-24 20:12 | 54.82778 | -1.64046 | 30082 ft | 448 kts | 329° |
| 2026-04-24 20:12 | 54.86309 | -1.67732 | 29503 ft | 447 kts | 329° |
| 2026-04-24 20:13 | 54.88973 | -1.70515 | 29078 ft | 445 kts | 329° |
| 2026-04-24 20:13 | 54.91617 | -1.73280 | 28667 ft | 443 kts | 329° |
| 2026-04-24 20:13 | 54.94244 | -1.76030 | 28138 ft | 439 kts | 329° |
| 2026-04-24 20:13 | 54.95975 | -1.77843 | 27784 ft | 437 kts | 329° |
| 2026-04-24 20:14 | 54.98571 | -1.80565 | 27260 ft | 434 kts | 329° |
| 2026-04-24 20:14 | 55.01151 | -1.83272 | 26750 ft | 431 kts | 329° |
| 2026-04-24 20:14 | 55.03706 | -1.85962 | 26249 ft | 428 kts | 329° |
| 2026-04-24 20:14 | 55.06241 | -1.88633 | 25782 ft | 425 kts | 329° |
| 2026-04-24 20:15 | 55.08756 | -1.91299 | 25288 ft | 422 kts | 327° |
| 2026-04-24 20:15 | 55.11077 | -1.94392 | 24809 ft | 419 kts | 317° |
| 2026-04-24 20:15 | 55.13053 | -1.98121 | 24331 ft | 417 kts | 308° |
| 2026-04-24 20:15 | 55.14632 | -2.02331 | 23871 ft | 415 kts | 300° |
| 2026-04-24 20:16 | 55.16062 | -2.06703 | 23328 ft | 412 kts | 300° |
| 2026-04-24 20:16 | 55.17486 | -2.11035 | 22782 ft | 409 kts | 300° |
| 2026-04-24 20:16 | 55.18902 | -2.15323 | 22246 ft | 406 kts | 300° |
| 2026-04-24 20:16 | 55.20310 | -2.19587 | 21721 ft | 403 kts | 300° |
| 2026-04-24 20:17 | 55.21702 | -2.23819 | 21195 ft | 399 kts | 300° |
| 2026-04-24 20:17 | 55.24443 | -2.32188 | 20197 ft | 394 kts | 300° |
| 2026-04-24 20:17 | 55.25794 | -2.36346 | 19706 ft | 390 kts | 299° |
| 2026-04-24 20:18 | 55.26680 | -2.39077 | 19388 ft | 388 kts | 299° |
| 2026-04-24 20:18 | 55.28457 | -2.44562 | 18696 ft | 384 kts | 299° |
| 2026-04-24 20:18 | 55.29771 | -2.48613 | 18025 ft | 380 kts | 299° |
| 2026-04-24 20:18 | 55.31041 | -2.52529 | 17704 ft | 359 kts | 299° |
| 2026-04-24 20:19 | 55.32258 | -2.56292 | 17475 ft | 350 kts | 299° |
| 2026-04-24 20:19 | 55.33449 | -2.59983 | 17088 ft | 345 kts | 299° |
| 2026-04-24 20:19 | 55.34624 | -2.63638 | 16676 ft | 342 kts | 299° |
| 2026-04-24 20:19 | 55.35791 | -2.67282 | 16227 ft | 342 kts | 299° |
| 2026-04-24 20:20 | 55.36942 | -2.70878 | 15707 ft | 343 kts | 299° |
| 2026-04-24 20:20 | 55.38111 | -2.74529 | 15191 ft | 343 kts | 300° |
| 2026-04-24 20:20 | 55.39281 | -2.78181 | 14741 ft | 340 kts | 300° |
| 2026-04-24 20:20 | 55.40423 | -2.81753 | 14306 ft | 328 kts | 300° |
| 2026-04-24 20:21 | 55.41517 | -2.85184 | 13849 ft | 315 kts | 300° |
| 2026-04-24 20:21 | 55.42566 | -2.88488 | 13376 ft | 304 kts | 300° |
| 2026-04-24 20:21 | 55.43580 | -2.91685 | 12906 ft | 296 kts | 300° |
| 2026-04-24 20:21 | 55.44619 | -2.94980 | 12443 ft | 317 kts | 300° |
| 2026-04-24 20:22 | 55.45654 | -2.98284 | 12245 ft | 296 kts | 300° |
| 2026-04-24 20:22 | 55.46602 | -3.01322 | 12252 ft | 274 kts | 300° |
| 2026-04-24 20:22 | 55.47511 | -3.04241 | 12253 ft | 269 kts | 300° |
| 2026-04-24 20:22 | 55.48414 | -3.07150 | 11932 ft | 270 kts | 300° |
| 2026-04-24 20:23 | 55.49322 | -3.10063 | 11567 ft | 271 kts | 300° |
| 2026-04-24 20:23 | 55.50236 | -3.12980 | 11181 ft | 272 kts | 300° |
| 2026-04-24 20:23 | 55.51150 | -3.15897 | 10816 ft | 272 kts | 300° |
| 2026-04-24 20:23 | 55.52063 | -3.18815 | 10450 ft | 271 kts | 300° |
| 2026-04-24 20:24 | 55.52970 | -3.21716 | 10086 ft | 268 kts | 300° |
| 2026-04-24 20:24 | 55.53852 | -3.24542 | 9684 ft | 257 kts | 300° |
| 2026-04-24 20:24 | 55.54698 | -3.27259 | 9293 ft | 248 kts | 300° |
| 2026-04-24 20:24 | 55.55514 | -3.29882 | 8894 ft | 239 kts | 300° |
| 2026-04-24 20:25 | 55.56302 | -3.32421 | 8521 ft | 233 kts | 300° |
| 2026-04-24 20:25 | 55.57074 | -3.34906 | 8139 ft | 230 kts | 300° |
| 2026-04-24 20:25 | 55.57846 | -3.37399 | 7772 ft | 232 kts | 300° |
| 2026-04-24 20:25 | 55.58617 | -3.39891 | 7399 ft | 230 kts | 300° |
| 2026-04-24 20:26 | 55.59375 | -3.42343 | 7030 ft | 224 kts | 300° |
| 2026-04-24 20:26 | 55.60117 | -3.44733 | 6667 ft | 220 kts | 300° |
| 2026-04-24 20:26 | 55.60851 | -3.47100 | 6360 ft | 219 kts | 300° |
| 2026-04-24 20:26 | 55.61572 | -3.49428 | 6099 ft | 211 kts | 300° |
| 2026-04-24 20:27 | 55.62253 | -3.51625 | 5894 ft | 203 kts | 300° |
| 2026-04-24 20:27 | 55.62929 | -3.53800 | 5630 ft | 202 kts | 300° |
| 2026-04-24 20:27 | 55.63605 | -3.55972 | 5369 ft | 200 kts | 300° |
| 2026-04-24 20:27 | 55.64276 | -3.58129 | 5117 ft | 200 kts | 300° |
| 2026-04-24 20:28 | 55.64948 | -3.60285 | 4877 ft | 200 kts | 300° |
| 2026-04-24 20:28 | 55.65621 | -3.62438 | 4611 ft | 199 kts | 299° |
| 2026-04-24 20:28 | 55.66284 | -3.64546 | 4351 ft | 193 kts | 299° |
| 2026-04-24 20:28 | 55.66933 | -3.66595 | 4105 ft | 188 kts | 299° |
| 2026-04-24 20:29 | 55.67357 | -3.67929 | 4032 ft | 180 kts | 299° |
| 2026-04-24 20:29 | 55.68165 | -3.70458 | 4010 ft | 177 kts | 300° |
| 2026-04-24 20:29 | 55.68772 | -3.72359 | 4013 ft | 177 kts | 299° |
| 2026-04-24 20:29 | 55.69380 | -3.74263 | 4012 ft | 177 kts | 299° |
| 2026-04-24 20:30 | 55.69987 | -3.76164 | 4012 ft | 177 kts | 299° |
| 2026-04-24 20:30 | 55.70588 | -3.78048 | 4011 ft | 172 kts | 299° |
| 2026-04-24 20:30 | 55.71171 | -3.79876 | 4013 ft | 168 kts | 299° |
| 2026-04-24 20:30 | 55.71746 | -3.81677 | 4011 ft | 168 kts | 300° |
| 2026-04-24 20:31 | 55.72325 | -3.83467 | 4013 ft | 167 kts | 303° |
| 2026-04-24 20:31 | 55.73225 | -3.84669 | 3999 ft | 166 kts | 347° |
| 2026-04-24 20:31 | 55.74367 | -3.84525 | 4020 ft | 167 kts | 14° |
| 2026-04-24 20:31 | 55.75473 | -3.83881 | 4011 ft | 168 kts | 23° |
| 2026-04-24 20:32 | 55.76410 | -3.82836 | 4024 ft | 150 kts | 33° |
| 2026-04-24 20:32 | 55.77261 | -3.81809 | 3962 ft | 147 kts | 33° |
| 2026-04-24 20:32 | 55.78100 | -3.80801 | 3779 ft | 145 kts | 33° |
| 2026-04-24 20:32 | 55.78934 | -3.79798 | 3602 ft | 144 kts | 33° |
| 2026-04-24 20:33 | 55.79763 | -3.78798 | 3432 ft | 144 kts | 33° |
| 2026-04-24 20:33 | 55.80580 | -3.77811 | 3245 ft | 144 kts | 33° |
| 2026-04-24 20:33 | 55.81345 | -3.76640 | 3089 ft | 144 kts | 53° |
| 2026-04-24 20:33 | 55.81933 | -3.75189 | 3031 ft | 145 kts | 54° |
| 2026-04-24 20:34 | 55.82495 | -3.73700 | 3016 ft | 145 kts | 56° |
| 2026-04-24 20:34 | 55.83030 | -3.72212 | 3012 ft | 145 kts | 57° |
| 2026-04-24 20:34 | 55.83568 | -3.70679 | 3012 ft | 145 kts | 57° |
| 2026-04-24 20:34 | 55.84098 | -3.69151 | 3012 ft | 145 kts | 57° |
| 2026-04-24 20:35 | 55.84627 | -3.67618 | 3009 ft | 145 kts | 57° |
| 2026-04-24 20:35 | 55.85155 | -3.66084 | 3010 ft | 145 kts | 57° |
| 2026-04-24 20:35 | 55.85681 | -3.64554 | 3010 ft | 145 kts | 58° |
| 2026-04-24 20:35 | 55.86207 | -3.63021 | 3010 ft | 145 kts | 57° |
| 2026-04-24 20:36 | 55.86735 | -3.61482 | 2968 ft | 146 kts | 57° |
| 2026-04-24 20:36 | 55.87263 | -3.59940 | 2829 ft | 146 kts | 58° |
| 2026-04-24 20:36 | 55.87790 | -3.58401 | 2661 ft | 146 kts | 58° |
| 2026-04-24 20:36 | 55.88317 | -3.56862 | 2469 ft | 145 kts | 58° |
| 2026-04-24 20:37 | 55.88841 | -3.55329 | 2284 ft | 145 kts | 58° |
| 2026-04-24 20:37 | 55.89369 | -3.53785 | 2090 ft | 145 kts | 58° |
| 2026-04-24 20:37 | 55.89893 | -3.52250 | 1892 ft | 145 kts | 58° |
| 2026-04-24 20:37 | 55.90418 | -3.50713 | 1699 ft | 145 kts | 58° |
| 2026-04-24 20:38 | 55.90939 | -3.49186 | 1488 ft | 144 kts | 58° |
| 2026-04-24 20:38 | 55.91457 | -3.47666 | 1308 ft | 143 kts | 58° |
| 2026-04-24 20:38 | 55.91973 | -3.46152 | 1113 ft | 142 kts | 58° |
| 2026-04-24 20:38 | 55.92480 | -3.44661 | 927 ft | 139 kts | 58° |
| 2026-04-24 20:39 | 55.92975 | -3.43208 | 736 ft | 136 kts | 58° |
| 2026-04-24 20:39 | 55.93460 | -3.41781 | 559 ft | 133 kts | 58° |
| 2026-04-24 20:39 | 55.93938 | -3.40376 | 382 ft | 131 kts | 59° |
| 2026-04-24 20:39 | 55.94406 | -3.38988 | 201 ft | 130 kts | 59° |
| 2026-04-24 20:40 | 55.94851 | -3.37685 | 113 ft | 108 kts | 59° |
| 2026-04-24 20:40 | 55.95153 | -3.36798 | 113 ft | 59 kts | 58° |
| 2026-04-24 20:40 | 55.95279 | -3.36422 | 111 ft | 20 kts | 59° |
| 2026-04-24 20:40 | 55.95355 | -3.36198 | 109 ft | 22 kts | 58° |
| 2026-04-24 20:41 | 55.95437 | -3.35958 | 110 ft | 23 kts | 59° |
| 2026-04-24 20:41 | 55.95520 | -3.35712 | 113 ft | 22 kts | 59° |
| 2026-04-24 20:41 | 55.95566 | -3.35547 | 112 ft | 10 kts | 87° |
| 2026-04-24 20:41 | 55.95522 | -3.35467 | 113 ft | 7 kts | 150° |
| 2026-04-24 20:42 | 55.95481 | -3.35424 | 111 ft | 6 kts | 149° |
| 2026-04-24 20:42 | 55.95445 | -3.35408 | 113 ft | 5 kts | 189° |
| 2026-04-24 20:42 | 55.95411 | -3.35469 | 113 ft | 8 kts | 239° |
| 2026-04-24 20:42 | 55.95384 | -3.35547 | 112 ft | 7 kts | 238° |
| 2026-04-24 20:43 | 55.95359 | -3.35617 | 112 ft | 6 kts | 237° |
| 2026-04-24 20:43 | 55.95338 | -3.35682 | 111 ft | 5 kts | 240° |
| 2026-04-24 20:43 | 55.95321 | -3.35736 | 111 ft | 5 kts | 240° |
| 2026-04-24 20:43 | 55.95305 | -3.35782 | 111 ft | 4 kts | 239° |
| 2026-04-24 20:44 | 55.95290 | -3.35827 | 112 ft | 4 kts | 239° |
| 2026-04-24 20:44 | 55.95276 | -3.35868 | 112 ft | 6 kts | 239° |
| 2026-04-24 20:44 | 55.95248 | -3.35949 | 112 ft | 7 kts | 237° |
| 2026-04-24 20:44 | 55.95222 | -3.36022 | 112 ft | 7 kts | 238° |
| 2026-04-24 20:45 | 55.95191 | -3.36115 | 111 ft | 13 kts | 239° |
| 2026-04-24 20:45 | 55.95149 | -3.36242 | 111 ft | 11 kts | 240° |
| 2026-04-24 20:45 | 55.95111 | -3.36352 | 112 ft | 8 kts | 239° |
| 2026-04-24 20:45 | 55.95077 | -3.36404 | 112 ft | 6 kts | 185° |
| 2026-04-24 20:46 | 55.95041 | -3.36384 | 112 ft | 5 kts | 171° |
| 2026-04-24 20:46 | 55.95017 | -3.36404 | 111 ft | 0 kts | 223° |
| 2026-04-24 20:47 | 55.95001 | -3.36425 | 112 ft | 2 kts | 189° |
| 2026-04-24 20:47 | 55.94986 | -3.36408 | 112 ft | 2 kts | 147° |
| 2026-04-24 20:47 | 55.94974 | -3.36396 | 112 ft | 2 kts | 148° |
| 2026-04-24 20:47 | 55.94966 | -3.36386 | 112 ft | 2 kts | 147° |
| 2026-04-24 20:48 | 55.94954 | -3.36372 | 112 ft | 2 kts | 147° |
| 2026-04-24 20:48 | 55.94950 | -3.36368 | 112 ft | 0 kts | 147° |